Time;durP1;ratioP1;P1;durP2;ratioP2;P2;SDS_P1;SDS_P2;PMS_P1;PMS_P2;Temp;Humidity;BMP_temperature;BMP_pressure;BME280_temperature;BME280_humidity;BME280_pressure;Samples;Min_cycle;Max_cycle;Signal;HPM_P1;HPM_P2
2022/07/12 00:02:23;;;;;;;7.65;6.95;;;;;;;;;;5143247;28;41181;-88
2022/07/12 00:05:13;;;;;;;5.28;4.78;;;;;;;;;;5128761;29;20038;-88
2022/07/12 00:07:47;;;;;;;6.70;6.03;;;;;;;;;;5123375;28;20040;-87
2022/07/12 00:10:43;;;;;;;6.78;6.10;;;;;;;;;;5135802;28;20035;-88
2022/07/12 00:13:20;;;;;;;7.90;7.07;;;;;;;;;;5134083;28;20430;-88
2022/07/12 00:16:11;;;;;;;10.98;8.55;;;;;;;;;;5124171;28;20066;-88
2022/07/12 00:19:12;;;;;;;10.45;9.27;;;;;;;;;;5127482;28;20111;-87
2022/07/12 00:21:53;;;;;;;11.30;10.20;;;;;;;;;;5130088;28;20050;-88
2022/07/12 00:24:30;;;;;;;10.40;9.50;;;;;;;;;;5122372;29;20169;-88
2022/07/12 00:27:19;;;;;;;19.73;15.88;;;;;;;;;;5121053;28;20130;-88
2022/07/12 00:30:07;;;;;;;11.70;9.52;;;;;;;;;;5136663;28;20048;-87
2022/07/12 00:32:41;;;;;;;10.25;9.07;;;;;;;;;;5128264;28;20035;-87
2022/07/12 00:35:13;;;;;;;9.90;8.55;;;;;;;;;;5144150;28;20099;-87
2022/07/12 00:37:56;;;;;;;8.45;7.00;;;;;;;;;;5164479;28;20076;-87
2022/07/12 00:40:53;;;;;;;6.53;5.40;;;;;;;;;;5143063;28;20052;-87
2022/07/12 00:43:27;;;;;;;;;;;;;;;;;;5153542;28;20054;-85
2022/07/12 00:46:19;;;;;;;6.00;5.22;;;;;;;;;;5144418;28;19931;-87
2022/07/12 00:52:52;;;;;;;;;;;;;;;;;;;;;
2022/07/12 00:55:36;;;;;;;4.95;4.40;;;;;;;;;;5057076;29;20029;-86
2022/07/12 00:58:10;;;;;;;4.50;4.13;;;;;;;;;;5139403;28;20183;-85
2022/07/12 01:00:54;;;;;;;5.57;4.45;;;;;;;;;;5137591;28;20043;-86
2022/07/12 01:03:27;;;;;;;4.93;4.53;;;;;;;;;;5118103;28;20044;-85
2022/07/12 01:06:01;;;;;;;5.53;5.07;;;;;;;;;;5120319;28;21533;-86
2022/07/12 01:09:14;;;;;;;4.32;3.92;;;;;;;;;;5129074;28;20040;-87
2022/07/12 01:11:57;;;;;;;7.50;5.28;;;;;;;;;;5135891;28;20060;-86
2022/07/12 01:14:55;;;;;;;7.55;5.25;;;;;;;;;;5135112;28;20039;-87
2022/07/12 01:17:31;;;;;;;5.82;4.97;;;;;;;;;;5119636;28;20052;-85
2022/07/12 01:20:17;;;;;;;7.47;5.78;;;;;;;;;;5132986;28;20131;-87
2022/07/12 01:23:07;;;;;;;8.57;6.32;;;;;;;;;;5119220;28;20182;-87
2022/07/12 01:25:48;;;;;;;9.13;8.23;;;;;;;;;;5141764;28;20024;-87
2022/07/12 01:31:37;;;;;;;7.78;6.97;;;;;;;;;;5136630;28;20131;-86
2022/07/12 01:34:17;;;;;;;9.10;8.18;;;;;;;;;;5127321;28;20039;-86
2022/07/12 01:36:51;;;;;;;7.43;6.10;;;;;;;;;;5133450;28;20028;-87
2022/07/12 01:39:51;;;;;;;6.57;6.07;;;;;;;;;;5131669;28;20040;-87
2022/07/12 01:42:32;;;;;;;6.30;5.80;;;;;;;;;;5133594;28;20048;-86
2022/07/12 01:45:16;;;;;;;5.63;5.13;;;;;;;;;;5133060;28;20071;-87
2022/07/12 01:48:00;;;;;;;;;;;;;;;;;;;;;
2022/07/12 01:50:38;;;;;;;6.18;5.68;;;;;;;;;;5146597;28;41201;-88
2022/07/12 01:53:10;;;;;;;9.02;8.15;;;;;;;;;;5123192;28;20032;-87
2022/07/12 01:55:42;;;;;;;11.50;10.50;;;;;;;;;;5142525;28;20378;-86
2022/07/12 01:58:14;;;;;;;13.00;11.25;;;;;;;;;;5140783;28;20079;-87
2022/07/12 02:00:56;;;;;;;12.43;11.32;;;;;;;;;;5124304;28;20055;-87
2022/07/12 02:03:33;;;;;;;8.18;7.47;;;;;;;;;;5122591;28;20119;-87
2022/07/12 02:06:07;;;;;;;9.65;7.18;;;;;;;;;;5119828;28;20044;-87
2022/07/12 02:08:42;;;;;;;12.80;11.15;;;;;;;;;;5138064;28;20028;-86
2022/07/12 02:11:14;;;;;;;12.38;11.15;;;;;;;;;;5123148;28;20065;-86
2022/07/12 02:13:45;;;;;;;13.25;11.95;;;;;;;;;;5136533;28;20071;-87
2022/07/12 02:16:21;;;;;;;12.38;11.27;;;;;;;;;;5137861;28;20419;-87
2022/07/12 02:18:53;;;;;;;12.90;11.63;;;;;;;;;;5128408;28;20034;-87
2022/07/12 02:21:25;;;;;;;13.38;12.00;;;;;;;;;;5123630;28;20024;-87
2022/07/12 02:23:59;;;;;;;13.43;12.13;;;;;;;;;;5124044;28;20032;-87
2022/07/12 02:26:32;;;;;;;13.02;11.95;;;;;;;;;;5128385;28;20023;-87
2022/07/12 02:29:04;;;;;;;13.27;11.93;;;;;;;;;;5124311;28;20198;-86
2022/07/12 02:31:42;;;;;;;12.13;7.75;;;;;;;;;;5141289;28;20143;-87
2022/07/12 02:34:16;;;;;;;7.90;7.20;;;;;;;;;;5130981;28;20042;-87
2022/07/12 02:37:10;;;;;;;10.18;9.05;;;;;;;;;;5135875;28;20027;-87
2022/07/12 02:39:44;;;;;;;11.90;10.90;;;;;;;;;;5149544;28;20550;-87
2022/07/12 02:42:21;;;;;;;12.93;11.63;;;;;;;;;;5133456;28;20067;-87
2022/07/12 02:44:55;;;;;;;8.60;7.80;;;;;;;;;;5140263;28;20057;-87
2022/07/12 02:47:36;;;;;;;12.63;11.35;;;;;;;;;;5132929;28;20046;-87
2022/07/12 02:50:13;;;;;;;12.43;11.30;;;;;;;;;;5123786;28;20059;-87
2022/07/12 02:52:46;;;;;;;7.90;7.20;;;;;;;;;;5120491;28;20062;-87
2022/07/12 02:55:17;;;;;;;7.88;7.13;;;;;;;;;;5149243;28;20376;-86
2022/07/12 02:57:56;;;;;;;12.32;11.23;;;;;;;;;;5134595;28;20397;-87
2022/07/12 03:00:30;;;;;;;10.85;9.57;;;;;;;;;;5143971;28;20043;-87
2022/07/12 03:03:06;;;;;;;11.32;10.32;;;;;;;;;;5132646;28;20044;-86
2022/07/12 03:05:44;;;;;;;13.32;11.63;;;;;;;;;;5138480;28;20040;-87
2022/07/12 03:08:15;;;;;;;14.05;12.48;;;;;;;;;;5140569;28;20032;-87
2022/07/12 03:10:47;;;;;;;14.18;12.80;;;;;;;;;;5126386;28;20039;-87
2022/07/12 03:16:35;;;;;;;12.05;11.05;;;;;;;;;;5080554;29;20383;-85
2022/07/12 03:19:06;;;;;;;16.92;13.18;;;;;;;;;;5107883;28;20048;-85
2022/07/12 03:21:37;;;;;;;14.85;13.45;;;;;;;;;;5136154;28;20077;-85
2022/07/12 03:24:10;;;;;;;15.65;14.05;;;;;;;;;;5122036;28;20104;-86
2022/07/12 03:26:46;;;;;;;15.25;13.85;;;;;;;;;;5133730;28;20051;-85
2022/07/12 03:29:20;;;;;;;;;;;;;;;;;;5134935;28;20029;-86
2022/07/12 03:31:57;;;;;;;13.10;11.90;;;;;;;;;;5112421;28;19927;-85
2022/07/12 03:34:47;;;;;;;17.17;13.60;;;;;;;;;;5131095;28;20098;-86
2022/07/12 03:37:19;;;;;;;14.50;13.18;;;;;;;;;;5114304;28;20071;-85
2022/07/12 03:40:22;;;;;;;13.68;12.48;;;;;;;;;;5117156;28;20028;-85
2022/07/12 03:42:59;;;;;;;14.68;13.18;;;;;;;;;;5111944;28;20103;-86
2022/07/12 03:45:45;;;;;;;10.10;9.20;;;;;;;;;;5115068;28;20573;-85
2022/07/12 03:48:16;;;;;;;14.82;13.43;;;;;;;;;;5120887;28;20041;-84
2022/07/12 03:50:53;;;;;;;15.05;13.45;;;;;;;;;;5118366;28;20107;-84
2022/07/12 03:53:25;;;;;;;11.63;10.27;;;;;;;;;;5138250;28;20111;-84
2022/07/12 03:55:56;;;;;;;15.20;13.48;;;;;;;;;;5132979;28;20145;-84
2022/07/12 03:58:30;;;;;;;10.75;9.65;;;;;;;;;;5133837;28;20404;-85
2022/07/12 04:01:01;;;;;;;14.95;13.45;;;;;;;;;;5115815;28;20154;-84
2022/07/12 04:03:33;;;;;;;15.48;13.93;;;;;;;;;;5121071;28;20091;-85
2022/07/12 04:06:07;;;;;;;15.07;13.63;;;;;;;;;;5116574;28;20155;-84
2022/07/12 04:08:40;;;;;;;15.10;13.00;;;;;;;;;;5120057;28;20032;-84
2022/07/12 04:11:12;;;;;;;15.48;14.07;;;;;;;;;;5116792;28;20039;-84
2022/07/12 04:13:46;;;;;;;16.23;14.55;;;;;;;;;;5123040;28;20020;-84
2022/07/12 04:16:35;;;;;;;13.10;10.98;;;;;;;;;;5139645;28;20561;-84
2022/07/12 04:19:09;;;;;;;14.20;13.00;;;;;;;;;;5119258;28;20099;-84
2022/07/12 04:21:45;;;;;;;15.68;12.50;;;;;;;;;;5135534;28;20111;-84
2022/07/12 04:24:16;;;;;;;;;;;;;;;;;;5121822;28;20119;-84
2022/07/12 04:26:53;;;;;;;10.80;8.80;;;;;;;;;;5133465;28;19949;-85
2022/07/12 04:29:24;;;;;;;;;;;;;;;;;;5118517;28;20040;-84
2022/07/12 04:31:58;;;;;;;9.50;8.38;;;;;;;;;;5115351;28;20341;-85
2022/07/12 04:34:32;;;;;;;8.80;8.05;;;;;;;;;;5132511;28;20032;-85
2022/07/12 04:37:08;;;;;;;8.98;8.18;;;;;;;;;;5133216;28;20036;-85
2022/07/12 04:39:54;;;;;;;9.27;8.35;;;;;;;;;;5122183;28;20038;-85
2022/07/12 04:42:29;;;;;;;8.80;7.90;;;;;;;;;;5130901;28;20043;-85
2022/07/12 04:45:00;;;;;;;9.65;8.75;;;;;;;;;;5111073;28;20481;-84
2022/07/12 04:47:31;;;;;;;14.05;12.75;;;;;;;;;;5115576;28;20088;-84
2022/07/12 04:50:19;;;;;;;10.93;9.85;;;;;;;;;;5130733;28;20419;-84
2022/07/12 04:56:11;;;;;;;10.93;9.82;;;;;;;;;;5073863;28;20040;-82
2022/07/12 05:02:11;;;;;;;13.23;11.38;;;;;;;;;;5114909;28;20052;-85
2022/07/12 05:04:45;;;;;;;11.48;10.27;;;;;;;;;;5137995;28;20039;-85
2022/07/12 05:07:22;;;;;;;11.50;10.40;;;;;;;;;;5131531;28;20040;-83
2022/07/12 05:09:53;;;;;;;15.32;13.82;;;;;;;;;;5136856;28;20032;-84
2022/07/12 05:12:24;;;;;;;21.33;15.38;;;;;;;;;;5112075;28;20032;-83
2022/07/12 05:15:03;;;;;;;15.82;14.20;;;;;;;;;;5124825;28;20032;-84
2022/07/12 05:17:44;;;;;;;13.55;12.38;;;;;;;;;;5130340;28;20497;-85
2022/07/12 05:20:15;;;;;;;17.92;16.33;;;;;;;;;;5116369;29;20024;-84
2022/07/12 05:22:46;;;;;;;19.17;17.38;;;;;;;;;;5139583;28;20078;-85
2022/07/12 05:25:21;;;;;;;20.63;18.73;;;;;;;;;;5142046;28;20025;-84
2022/07/12 05:27:52;;;;;;;20.73;18.75;;;;;;;;;;5135598;28;20040;-83
2022/07/12 05:30:26;;;;;;;20.63;18.83;;;;;;;;;;5118751;28;20092;-83
2022/07/12 05:33:02;;;;;;;21.90;19.90;;;;;;;;;;5147269;28;20054;-85
2022/07/12 05:36:06;;;;;;;21.00;17.98;;;;;;;;;;5125658;29;20060;-85
2022/07/12 05:38:37;;;;;;;25.45;16.38;;;;;;;;;;5124023;28;20036;-86
2022/07/12 05:41:18;;;;;;;22.42;15.18;;;;;;;;;;5136712;28;20054;-86
2022/07/12 05:43:57;;;;;;;22.42;14.43;;;;;;;;;;5131395;28;20516;-87
2022/07/12 05:47:04;;;;;;;22.65;13.43;;;;;;;;;;5139158;28;20036;-86
2022/07/12 05:49:38;;;;;;;13.48;10.98;;;;;;;;;;5107934;29;20043;-86
2022/07/12 05:55:25;;;;;;;11.20;7.80;;;;;;;;;;5136598;28;20178;-86
2022/07/12 05:58:01;;;;;;;17.58;10.30;;;;;;;;;;5125755;29;20036;-86
2022/07/12 06:00:41;;;;;;;;;;;;;;;;;;5122253;29;20127;-86
2022/07/12 06:03:24;;;;;;;17.52;9.68;;;;;;;;;;5128979;28;19915;-85
2022/07/12 06:05:56;;;;;;;8.98;7.70;;;;;;;;;;5115424;29;20032;-85
2022/07/12 06:08:27;;;;;;;10.82;6.75;;;;;;;;;;5114720;28;20072;-85
2022/07/12 06:10:59;;;;;;;10.20;7.88;;;;;;;;;;5126933;28;20073;-85
2022/07/12 06:13:33;;;;;;;15.13;8.25;;;;;;;;;;5138671;28;20036;-84
2022/07/12 06:16:09;;;;;;;11.35;6.32;;;;;;;;;;5123042;28;20040;-85
2022/07/12 06:18:43;;;;;;;12.48;6.43;;;;;;;;;;5138736;28;20115;-85
2022/07/12 06:21:14;;;;;;;9.27;6.68;;;;;;;;;;5120814;28;20410;-85
2022/07/12 06:23:48;;;;;;;8.32;6.78;;;;;;;;;;5137662;28;20040;-84
2022/07/12 06:26:19;;;;;;;10.88;6.63;;;;;;;;;;5133663;28;20036;-85
2022/07/12 06:28:50;;;;;;;8.82;6.55;;;;;;;;;;5117361;29;20036;-84
2022/07/12 06:31:23;;;;;;;6.93;6.28;;;;;;;;;;5132848;29;20036;-85
2022/07/12 06:33:54;;;;;;;9.32;5.70;;;;;;;;;;5130833;29;20099;-85
2022/07/12 06:36:26;;;;;;;6.97;6.23;;;;;;;;;;5131220;29;20029;-85
2022/07/12 06:38:57;;;;;;;8.43;6.13;;;;;;;;;;5113575;29;20371;-85
2022/07/12 06:41:29;;;;;;;7.55;5.85;;;;;;;;;;5115461;28;20054;-84
2022/07/12 06:44:00;;;;;;;8.40;5.80;;;;;;;;;;5135141;28;20103;-85
2022/07/12 06:46:31;;;;;;;7.22;6.43;;;;;;;;;;5138463;29;20034;-84
2022/07/12 06:49:03;;;;;;;7.37;6.77;;;;;;;;;;5137905;29;20035;-85
2022/07/12 06:51:36;;;;;;;7.13;6.22;;;;;;;;;;5137280;29;20363;-84
2022/07/12 06:54:07;;;;;;;8.77;6.18;;;;;;;;;;5138747;29;20036;-84
2022/07/12 06:56:39;;;;;;;9.10;6.40;;;;;;;;;;5125083;29;20036;-84
2022/07/12 06:59:10;;;;;;;9.10;6.70;;;;;;;;;;5141913;29;20036;-84
2022/07/12 07:01:42;;;;;;;8.77;6.57;;;;;;;;;;5124409;29;20028;-84
2022/07/12 07:04:13;;;;;;;11.02;7.15;;;;;;;;;;5124873;28;20088;-84
2022/07/12 07:06:45;;;;;;;6.37;5.77;;;;;;;;;;5124828;29;20028;-84
2022/07/12 07:09:16;;;;;;;6.47;5.87;;;;;;;;;;5123682;29;20067;-84
2022/07/12 07:11:47;;;;;;;11.07;6.45;;;;;;;;;;5124191;29;20446;-83
2022/07/12 07:14:19;;;;;;;6.60;5.85;;;;;;;;;;5141942;29;20135;-84
2022/07/12 07:16:52;;;;;;;6.70;5.38;;;;;;;;;;5124344;29;20036;-84
2022/07/12 07:19:25;;;;;;;5.47;4.38;;;;;;;;;;5123733;29;20047;-83
2022/07/12 07:21:58;;;;;;;8.13;5.85;;;;;;;;;;5124297;29;20515;-84
2022/07/12 07:24:30;;;;;;;7.70;5.50;;;;;;;;;;5110143;29;20017;-84
2022/07/12 07:27:01;;;;;;;10.73;4.87;;;;;;;;;;5124255;29;20028;-85
2022/07/12 07:32:22;;;;;;;3.38;2.00;;;;;;;;;;5140717;29;20096;-84
2022/07/12 07:34:53;;;;;;;4.70;4.25;;;;;;;;;;5139679;29;20023;-84
2022/07/12 07:37:24;;;;;;;3.50;3.20;;;;;;;;;;5141230;29;20512;-84
2022/07/12 07:39:56;;;;;;;4.60;3.70;;;;;;;;;;5140832;29;20032;-85
2022/07/12 07:42:27;;;;;;;3.97;3.00;;;;;;;;;;5141917;29;20043;-84
2022/07/12 07:44:58;;;;;;;3.00;2.80;;;;;;;;;;5123695;29;20080;-84
2022/07/12 07:47:29;;;;;;;5.10;2.70;;;;;;;;;;5123475;29;20315;-84
2022/07/12 07:50:00;;;;;;;3.40;2.50;;;;;;;;;;5140805;29;20528;-84
2022/07/12 07:52:32;;;;;;;3.47;2.50;;;;;;;;;;5128419;29;20445;-83
2022/07/12 07:55:03;;;;;;;5.23;2.20;;;;;;;;;;5118305;29;20753;-83
2022/07/12 07:57:34;;;;;;;6.38;2.80;;;;;;;;;;5123992;29;20503;-84
2022/07/12 08:00:06;;;;;;;3.33;2.67;;;;;;;;;;5140262;29;20373;-84
2022/07/12 08:02:37;;;;;;;2.47;2.25;;;;;;;;;;5123216;29;20048;-84
2022/07/12 08:05:08;;;;;;;3.33;2.60;;;;;;;;;;5125780;29;20028;-83
2022/07/12 08:07:39;;;;;;;7.23;2.70;;;;;;;;;;5126407;29;20035;-83
2022/07/12 08:10:10;;;;;;;6.67;3.30;;;;;;;;;;5126469;29;20265;-83
2022/07/12 08:12:42;;;;;;;3.67;2.60;;;;;;;;;;5144349;29;20025;-83
2022/07/12 08:15:13;;;;;;;5.27;3.20;;;;;;;;;;5144764;29;20102;-84
2022/07/12 08:17:44;;;;;;;4.13;3.13;;;;;;;;;;5147928;29;20025;-83
2022/07/12 08:20:15;;;;;;;8.77;3.47;;;;;;;;;;5161946;29;20020;-84
2022/07/12 08:22:46;;;;;;;4.47;2.90;;;;;;;;;;5162853;29;20036;-83
2022/07/12 08:25:18;;;;;;;7.07;3.20;;;;;;;;;;5160448;29;20319;-83
2022/07/12 08:27:49;;;;;;;4.57;3.33;;;;;;;;;;5156334;29;20047;-83
2022/07/12 08:30:20;;;;;;;9.02;4.50;;;;;;;;;;5138672;29;20689;-83
2022/07/12 08:32:52;;;;;;;4.30;3.92;;;;;;;;;;5124895;29;20071;-83
2022/07/12 08:35:23;;;;;;;7.63;3.13;;;;;;;;;;5146795;29;20024;-83
2022/07/12 08:37:54;;;;;;;4.28;3.67;;;;;;;;;;5148608;29;20024;-84
2022/07/12 08:40:25;;;;;;;6.30;2.90;;;;;;;;;;5149761;29;20030;-83
2022/07/12 08:42:57;;;;;;;5.10;2.70;;;;;;;;;;5143499;29;20032;-83
2022/07/12 08:45:28;;;;;;;4.40;2.65;;;;;;;;;;5124696;29;20040;-84
2022/07/12 08:47:59;;;;;;;3.65;2.67;;;;;;;;;;5124355;29;20128;-83
2022/07/12 08:50:31;;;;;;;3.50;3.00;;;;;;;;;;5124184;29;20028;-84
2022/07/12 08:53:09;;;;;;;4.95;3.22;;;;;;;;;;5113813;29;20032;-84
2022/07/12 08:55:40;;;;;;;4.53;3.22;;;;;;;;;;5121161;29;20109;-83
2022/07/12 08:58:15;;;;;;;3.63;2.67;;;;;;;;;;5104411;29;20112;-83
2022/07/12 09:00:46;;;;;;;3.20;2.60;;;;;;;;;;5103222;29;20288;-83
2022/07/12 09:03:21;;;;;;;6.87;3.47;;;;;;;;;;5120419;29;20272;-84
2022/07/12 09:05:53;;;;;;;7.70;3.05;;;;;;;;;;5138586;29;20053;-84
2022/07/12 09:08:29;;;;;;;5.15;2.97;;;;;;;;;;5141173;29;20047;-84
2022/07/12 09:11:04;;;;;;;4.32;3.10;;;;;;;;;;5140846;29;20044;-84
2022/07/12 09:13:54;;;;;;;4.53;3.28;;;;;;;;;;5140794;29;20731;-83
2022/07/12 09:16:25;;;;;;;4.65;3.30;;;;;;;;;;5118681;29;20135;-84
2022/07/12 09:19:14;;;;;;;8.10;4.10;;;;;;;;;;5119623;29;20104;-84
2022/07/12 09:21:52;;;;;;;4.30;2.72;;;;;;;;;;5103855;29;20478;-83
2022/07/12 09:24:24;;;;;;;5.28;2.35;;;;;;;;;;5108042;29;20017;-83
2022/07/12 09:27:04;;;;;;;4.40;2.40;;;;;;;;;;5123419;29;20028;-84
2022/07/12 09:29:48;;;;;;;3.03;2.10;;;;;;;;;;5123286;29;20024;-84
2022/07/12 09:38:09;;;;;;;7.15;2.22;;;;;;;;;;5120432;29;20061;-84
2022/07/12 09:40:41;;;;;;;5.55;2.45;;;;;;;;;;5120302;29;20091;-84
2022/07/12 09:43:12;;;;;;;4.32;2.90;;;;;;;;;;5121374;29;20561;-84
2022/07/12 09:45:47;;;;;;;3.25;2.60;;;;;;;;;;5121198;29;20060;-84
2022/07/12 09:48:21;;;;;;;5.50;2.55;;;;;;;;;;5118728;29;20096;-84
2022/07/12 09:50:52;;;;;;;4.25;2.33;;;;;;;;;;5118527;29;20498;-84
2022/07/12 09:53:37;;;;;;;4.05;2.17;;;;;;;;;;5120565;29;20076;-84
2022/07/12 09:56:10;;;;;;;2.35;2.15;;;;;;;;;;5138490;29;20043;-84
2022/07/12 09:58:53;;;;;;;3.30;1.85;;;;;;;;;;5138737;29;20119;-84
2022/07/12 10:01:25;;;;;;;3.28;1.88;;;;;;;;;;5122541;29;20096;-84
2022/07/12 10:03:58;;;;;;;2.80;1.92;;;;;;;;;;5139646;29;20445;-83
2022/07/12 10:06:30;;;;;;;4.80;1.67;;;;;;;;;;5120602;29;20052;-83
2022/07/12 10:09:01;;;;;;;2.67;1.83;;;;;;;;;;5120459;29;20051;-84
2022/07/12 10:11:32;;;;;;;3.88;1.77;;;;;;;;;;5119314;29;20043;-84
2022/07/12 10:14:09;;;;;;;3.78;2.22;;;;;;;;;;5103263;29;20039;-84
2022/07/12 10:16:42;;;;;;;6.93;2.47;;;;;;;;;;5118130;29;20334;-84
2022/07/12 10:19:26;;;;;;;2.88;2.30;;;;;;;;;;5118389;29;20111;-83
2022/07/12 10:21:59;;;;;;;3.80;2.20;;;;;;;;;;5102724;29;20059;-83
2022/07/12 10:24:33;;;;;;;2.70;1.85;;;;;;;;;;5123443;29;20342;-84
2022/07/12 10:27:13;;;;;;;3.83;1.75;;;;;;;;;;5127775;29;20132;-84
2022/07/12 10:29:45;;;;;;;2.55;2.10;;;;;;;;;;5126810;28;20032;-83
2022/07/12 10:32:24;;;;;;;2.30;1.80;;;;;;;;;;5122186;29;20049;-84
2022/07/12 10:35:00;;;;;;;5.07;2.15;;;;;;;;;;5127345;29;20028;-84
2022/07/12 10:37:31;;;;;;;8.27;2.00;;;;;;;;;;5124583;29;20036;-84
2022/07/12 10:40:09;;;;;;;2.47;2.15;;;;;;;;;;5141786;29;20107;-83
2022/07/12 10:43:00;;;;;;;2.88;2.20;;;;;;;;;;5140350;29;20090;-83
2022/07/12 10:45:32;;;;;;;17.02;3.22;;;;;;;;;;5139402;29;20107;-83
2022/07/12 10:48:04;;;;;;;4.00;2.15;;;;;;;;;;5124110;28;20029;-84
2022/07/12 10:51:00;;;;;;;4.45;1.80;;;;;;;;;;5122206;29;20119;-84
2022/07/12 10:53:40;;;;;;;2.20;2.00;;;;;;;;;;5120447;29;20089;-84
2022/07/12 10:56:17;;;;;;;3.80;2.05;;;;;;;;;;5137295;29;20028;-85
2022/07/12 10:58:51;;;;;;;4.15;1.95;;;;;;;;;;5124886;28;20040;-84
2022/07/12 11:01:29;;;;;;;4.93;1.60;;;;;;;;;;5141236;28;20123;-85
2022/07/12 11:04:03;;;;;;;3.92;1.70;;;;;;;;;;5125212;29;20024;-84
2022/07/12 11:06:36;;;;;;;4.43;2.05;;;;;;;;;;5147665;28;20485;-84
2022/07/12 11:09:09;;;;;;;2.83;1.27;;;;;;;;;;5137068;28;20371;-85
2022/07/12 11:11:44;;;;;;;3.28;1.80;;;;;;;;;;5151849;28;20130;-85
2022/07/12 11:14:23;;;;;;;3.78;1.55;;;;;;;;;;5125565;29;20084;-85
2022/07/12 11:16:56;;;;;;;2.22;1.17;;;;;;;;;;5144464;28;20036;-85
2022/07/12 11:19:29;;;;;;;2.83;1.75;;;;;;;;;;5126066;28;20044;-84
2022/07/12 11:22:00;;;;;;;2.80;1.70;;;;;;;;;;5138866;28;20085;-84
2022/07/12 11:24:32;;;;;;;2.73;1.60;;;;;;;;;;5130803;29;20071;-85
2022/07/12 11:27:05;;;;;;;5.18;1.40;;;;;;;;;;5122150;28;20032;-85
2022/07/12 11:29:36;;;;;;;4.03;1.27;;;;;;;;;;5123296;29;20036;-85
2022/07/12 11:32:08;;;;;;;3.70;1.45;;;;;;;;;;5141894;29;20063;-85
2022/07/12 11:34:39;;;;;;;1.73;1.33;;;;;;;;;;5139638;29;20024;-85
2022/07/12 11:37:10;;;;;;;5.40;1.53;;;;;;;;;;5141568;29;20257;-85
2022/07/12 11:39:41;;;;;;;3.10;1.77;;;;;;;;;;5140273;29;20062;-85
2022/07/12 11:42:14;;;;;;;3.77;1.83;;;;;;;;;;5124611;29;20465;-84
2022/07/12 11:44:45;;;;;;;2.70;1.70;;;;;;;;;;5143584;29;20032;-85
2022/07/12 11:47:17;;;;;;;3.30;1.60;;;;;;;;;;5127029;29;20024;-85
2022/07/12 11:49:50;;;;;;;8.88;1.60;;;;;;;;;;5125185;29;20059;-84
2022/07/12 11:52:22;;;;;;;4.40;1.30;;;;;;;;;;5141007;29;20430;-84
2022/07/12 11:54:53;;;;;;;1.40;1.02;;;;;;;;;;5140867;28;20059;-85
2022/07/12 11:57:25;;;;;;;2.17;1.20;;;;;;;;;;5141304;29;20414;-85
2022/07/12 11:59:56;;;;;;;3.33;1.35;;;;;;;;;;5139911;29;20038;-84
2022/07/12 12:02:28;;;;;;;4.00;1.60;;;;;;;;;;5123086;29;20072;-85
2022/07/12 12:04:59;;;;;;;2.20;1.15;;;;;;;;;;5139172;28;20095;-85
2022/07/12 12:07:31;;;;;;;1.47;1.30;;;;;;;;;;5140739;29;20342;-85
2022/07/12 12:10:06;;;;;;;3.03;1.40;;;;;;;;;;5126903;28;20021;-84
2022/07/12 12:12:53;;;;;;;3.25;1.60;;;;;;;;;;5134935;29;20131;-84
2022/07/12 12:15:31;;;;;;;3.47;1.42;;;;;;;;;;5121068;29;20029;-84
2022/07/12 12:18:04;;;;;;;3.97;1.10;;;;;;;;;;5119073;29;20020;-84
2022/07/12 12:20:37;;;;;;;2.65;1.00;;;;;;;;;;5134714;29;20024;-85
2022/07/12 12:23:17;;;;;;;6.38;1.40;;;;;;;;;;5123122;29;20092;-85
2022/07/12 12:25:48;;;;;;;2.65;1.20;;;;;;;;;;5140792;29;20116;-85
2022/07/12 12:28:19;;;;;;;1.10;1.00;;;;;;;;;;5123677;29;20060;-84
2022/07/12 12:30:51;;;;;;;3.53;1.60;;;;;;;;;;5138815;29;20081;-84
2022/07/12 12:33:34;;;;;;;6.07;1.65;;;;;;;;;;5120420;29;20273;-85
2022/07/12 12:36:20;;;;;;;1.55;1.25;;;;;;;;;;5118491;29;20107;-85
2022/07/12 12:38:53;;;;;;;1.55;1.00;;;;;;;;;;5118227;29;20024;-85
2022/07/12 12:41:26;;;;;;;4.13;1.20;;;;;;;;;;5119031;29;20128;-84
2022/07/12 12:44:01;;;;;;;5.55;1.50;;;;;;;;;;5128229;28;20063;-85
2022/07/12 12:49:49;;;;;;;3.45;1.05;;;;;;;;;;5132786;29;20032;-85
2022/07/12 12:52:20;;;;;;;2.22;1.40;;;;;;;;;;5118421;29;20044;-85
2022/07/12 12:54:51;;;;;;;3.20;1.30;;;;;;;;;;5121662;29;20479;-85
2022/07/12 12:57:24;;;;;;;2.17;1.30;;;;;;;;;;5124016;29;20281;-84
2022/07/12 12:59:55;;;;;;;5.40;1.30;;;;;;;;;;5128044;29;20382;-85
2022/07/12 13:02:28;;;;;;;1.35;1.05;;;;;;;;;;5120163;29;20040;-85
2022/07/12 13:05:00;;;;;;;1.65;1.20;;;;;;;;;;5118769;29;20029;-85
2022/07/12 13:07:31;;;;;;;2.88;1.40;;;;;;;;;;5128186;29;20385;-85
2022/07/12 13:10:03;;;;;;;3.10;1.40;;;;;;;;;;5140007;29;20043;-85
2022/07/12 13:12:37;;;;;;;5.72;1.60;;;;;;;;;;5140440;29;20036;-85
2022/07/12 13:15:09;;;;;;;5.10;1.98;;;;;;;;;;5122057;29;20027;-85
2022/07/12 13:17:58;;;;;;;1.80;1.60;;;;;;;;;;5139921;29;20473;-85
2022/07/12 13:20:30;;;;;;;4.70;1.63;;;;;;;;;;5139367;29;20256;-85
2022/07/12 13:23:01;;;;;;;5.07;2.05;;;;;;;;;;5123282;29;20119;-85
2022/07/12 13:25:32;;;;;;;4.27;1.77;;;;;;;;;;5124773;29;20032;-84
2022/07/12 13:28:10;;;;;;;3.10;1.73;;;;;;;;;;5150514;29;20303;-85
2022/07/12 13:30:41;;;;;;;4.10;1.95;;;;;;;;;;5157672;29;20028;-85
2022/07/12 13:33:13;;;;;;;3.40;1.90;;;;;;;;;;5140351;28;20048;-85
2022/07/12 13:35:44;;;;;;;11.15;2.30;;;;;;;;;;5151813;28;20264;-85
2022/07/12 13:38:18;;;;;;;3.35;2.00;;;;;;;;;;5159283;28;20047;-85
2022/07/12 13:40:59;;;;;;;6.68;2.00;;;;;;;;;;5141776;29;20043;-84
2022/07/12 13:43:30;;;;;;;3.08;1.90;;;;;;;;;;5157524;28;20051;-85
2022/07/12 13:46:02;;;;;;;3.55;2.10;;;;;;;;;;5139236;29;20027;-85
2022/07/12 13:48:39;;;;;;;4.68;2.20;;;;;;;;;;5134132;28;20035;-85
2022/07/12 13:51:11;;;;;;;3.28;2.00;;;;;;;;;;5145760;28;20044;-85
2022/07/12 13:53:42;;;;;;;3.40;1.90;;;;;;;;;;5132545;28;20087;-85
2022/07/12 13:56:13;;;;;;;4.15;2.10;;;;;;;;;;5146396;28;20119;-84
2022/07/12 13:58:45;;;;;;;3.90;2.00;;;;;;;;;;5124740;28;20127;-84
2022/07/12 14:01:16;;;;;;;4.37;1.83;;;;;;;;;;5125694;28;20051;-85
2022/07/12 14:03:50;;;;;;;7.40;2.33;;;;;;;;;;5138878;28;20071;-84
2022/07/12 14:06:22;;;;;;;3.47;2.07;;;;;;;;;;5138988;28;20032;-84
2022/07/12 14:08:53;;;;;;;9.27;2.30;;;;;;;;;;5150128;28;20028;-85
2022/07/12 14:11:27;;;;;;;6.30;2.00;;;;;;;;;;5132113;28;20029;-84
2022/07/12 14:13:58;;;;;;;19.42;2.58;;;;;;;;;;5140921;28;20461;-85
2022/07/12 14:16:30;;;;;;;15.73;2.78;;;;;;;;;;5148088;28;20038;-85
2022/07/12 14:19:01;;;;;;;7.70;2.53;;;;;;;;;;5128455;28;20063;-85
2022/07/12 14:21:32;;;;;;;2.13;1.70;;;;;;;;;;5149070;28;20024;-85
2022/07/12 14:24:04;;;;;;;3.33;1.90;;;;;;;;;;5147299;28;20351;-85
2022/07/12 14:26:35;;;;;;;3.22;1.70;;;;;;;;;;5144059;28;20284;-85
2022/07/12 14:29:06;;;;;;;2.20;1.90;;;;;;;;;;5152150;28;20110;-85
2022/07/12 14:31:40;;;;;;;7.15;2.05;;;;;;;;;;5147104;28;20058;-85
2022/07/12 14:34:11;;;;;;;8.45;2.33;;;;;;;;;;5131186;28;20048;-85
2022/07/12 14:36:43;;;;;;;5.33;1.70;;;;;;;;;;5133618;28;20135;-85
2022/07/12 14:39:14;;;;;;;4.80;2.03;;;;;;;;;;5127325;28;20269;-85
2022/07/12 14:41:46;;;;;;;10.02;2.63;;;;;;;;;;5150371;28;20028;-85
2022/07/12 14:44:18;;;;;;;2.92;1.77;;;;;;;;;;5147447;28;20020;-85
2022/07/12 14:46:52;;;;;;;4.63;2.17;;;;;;;;;;5133451;28;20501;-85
2022/07/12 14:49:24;;;;;;;2.90;1.80;;;;;;;;;;5149747;28;20138;-85
2022/07/12 14:51:55;;;;;;;2.83;2.17;;;;;;;;;;5143951;28;20040;-85
2022/07/12 14:54:27;;;;;;;2.25;2.03;;;;;;;;;;5131041;28;20028;-84
2022/07/12 14:56:58;;;;;;;9.10;2.08;;;;;;;;;;5151387;28;20071;-85
2022/07/12 14:59:29;;;;;;;4.97;1.93;;;;;;;;;;5145591;28;20103;-85
2022/07/12 15:02:01;;;;;;;4.35;1.75;;;;;;;;;;5130461;28;20296;-84
2022/07/12 15:04:32;;;;;;;4.78;1.75;;;;;;;;;;5137664;28;20028;-84
2022/07/12 15:07:04;;;;;;;4.78;1.90;;;;;;;;;;5153421;28;20043;-85
2022/07/12 15:09:35;;;;;;;3.67;1.90;;;;;;;;;;5128858;29;20133;-84
2022/07/12 15:12:06;;;;;;;3.95;1.98;;;;;;;;;;5142975;28;20335;-84
2022/07/12 15:14:38;;;;;;;10.98;2.10;;;;;;;;;;5136317;29;20059;-85
2022/07/12 15:17:09;;;;;;;2.92;1.98;;;;;;;;;;5148617;28;20032;-84
2022/07/12 15:19:40;;;;;;;6.07;2.22;;;;;;;;;;5152319;28;20029;-83
2022/07/12 15:22:12;;;;;;;2.40;2.20;;;;;;;;;;5128431;28;20036;-85
2022/07/12 15:24:43;;;;;;;15.45;2.50;;;;;;;;;;5129700;28;20488;-85
2022/07/12 15:27:15;;;;;;;10.15;2.85;;;;;;;;;;5126452;29;20635;-85
2022/07/12 15:29:47;;;;;;;2.90;2.00;;;;;;;;;;5139266;29;20020;-85
2022/07/12 15:32:19;;;;;;;4.60;2.20;;;;;;;;;;5136851;29;20059;-85
2022/07/12 15:34:50;;;;;;;6.00;2.15;;;;;;;;;;5125775;29;20096;-84
2022/07/12 15:37:21;;;;;;;3.05;2.05;;;;;;;;;;5125312;29;20064;-85
2022/07/12 15:39:53;;;;;;;6.60;2.27;;;;;;;;;;5143062;29;20107;-85
2022/07/12 15:42:24;;;;;;;5.22;1.98;;;;;;;;;;5115104;29;20309;-85
2022/07/12 15:44:58;;;;;;;7.80;2.65;;;;;;;;;;5121721;29;20067;-85
2022/07/12 15:47:30;;;;;;;12.38;2.88;;;;;;;;;;5105615;29;20401;-84
2022/07/12 15:50:01;;;;;;;8.25;2.22;;;;;;;;;;5126483;29;20020;-85
2022/07/12 15:55:25;;;;;;;3.58;2.20;;;;;;;;;;5142705;29;20124;-84
2022/07/12 15:58:00;;;;;;;9.65;2.13;;;;;;;;;;5125819;29;20116;-84
2022/07/12 16:00:32;;;;;;;3.55;2.05;;;;;;;;;;5121971;29;20067;-84
2022/07/12 16:03:06;;;;;;;2.60;2.17;;;;;;;;;;5138463;29;20501;-85